Callisburg, Texas
Current Conditions -  °F | °C
As of 4:35 PM on Friday 31 Oct 2014 (Local Time) from KGLE Reporting Station
Clear Clear  
Wind Chill: 62°   Ceiling: Unl
Heat Index: 62°   Visibility: 10mi
Dew Point: 37°   Wind: 15mph
Humidity: 39%   Direction: 350°N
Pressure: 30.33"   Gusts: 22mph
Location:  33.7001°N, 97.0805°W
Report Text: KGLE 312135Z AUTO 35013G19KT 10SM CLR 17/03 A3033 RMK AO2 T01650026
Loading
Personal Weather Stations






























Interactive Weather Map
Tropical Storm Tracking
New forecast layout! Learn more

10-Day Weather Forecast

Advertisements
Track Severe Weather on mobile